createdAt,value
2023-02-11T00:01:37.702Z,-5.99
2023-02-11T00:04:05.072Z,-6.02
2023-02-11T00:06:32.248Z,-6.08
2023-02-11T00:08:58.835Z,-6.05
2023-02-11T00:11:26.530Z,-6.29
2023-02-11T00:13:53.063Z,-6.42
2023-02-11T00:16:20.338Z,-6.14
2023-02-11T00:18:46.986Z,-6.14
2023-02-11T00:21:15.241Z,-6.22
2023-02-11T00:23:41.942Z,-6.23
2023-02-11T00:26:24.468Z,-6.41
2023-02-11T00:28:51.093Z,-6.34
2023-02-11T00:31:18.498Z,-6.42
2023-02-11T00:33:45.714Z,-6.18
2023-02-11T00:36:17.462Z,-6.17
2023-02-11T00:38:44.543Z,-6.43
2023-02-11T00:41:11.741Z,-6.49
2023-02-11T00:43:38.221Z,-6.37
2023-02-11T00:46:04.832Z,-6.29
2023-02-11T00:48:31.408Z,-6.27
2023-02-11T00:50:58.281Z,-6.20
2023-02-11T00:53:25.085Z,-6.36
2023-02-11T00:55:51.906Z,-6.23
2023-02-11T00:58:18.580Z,-6.23
2023-02-11T01:00:45.060Z,-5.75
2023-02-11T01:03:11.601Z,-5.34
2023-02-11T01:05:38.188Z,-5.18
2023-02-11T01:08:05.078Z,-5.77
2023-02-11T01:10:31.744Z,-6.20
2023-02-11T01:12:58.272Z,-6.13
2023-02-11T01:15:24.782Z,-6.42
2023-02-11T01:17:51.394Z,-6.32
2023-02-11T01:20:21.432Z,-6.48
2023-02-11T01:22:48.003Z,-6.41
2023-02-11T01:25:14.577Z,-6.32
2023-02-11T01:27:41.125Z,-6.20
2023-02-11T01:30:08.611Z,-6.23
2023-02-11T01:32:35.219Z,-5.46
2023-02-11T01:35:01.727Z,-5.37
2023-02-11T01:37:28.302Z,-5.32
2023-02-11T01:39:55.006Z,-5.45
2023-02-11T01:42:23.265Z,-5.96
2023-02-11T01:44:51.416Z,-5.99
2023-02-11T01:47:18.951Z,-5.92
2023-02-11T01:49:47.703Z,-6.44
2023-02-11T01:52:30.743Z,-6.36
2023-02-11T01:55:19.272Z,-6.15
2023-02-11T01:57:48.017Z,-6.09
2023-02-11T02:00:14.651Z,-6.13
2023-02-11T02:02:46.481Z,-6.03
2023-02-11T02:05:34.311Z,-5.95
2023-02-11T02:08:11.741Z,-6.26
2023-02-11T02:10:38.494Z,-6.18
2023-02-11T02:13:04.970Z,-5.88
2023-02-11T02:15:35.386Z,-5.38
2023-02-11T02:18:03.217Z,-5.45
2023-02-11T02:20:56.634Z,-5.19
2023-02-11T02:23:25.783Z,-5.47
2023-02-11T02:26:10.977Z,-5.85
2023-02-11T02:29:02.741Z,-5.94
2023-02-11T02:31:41.367Z,-6.02
2023-02-11T02:34:15.959Z,-5.87
2023-02-11T02:37:01.919Z,-5.68
2023-02-11T02:39:31.068Z,-5.81
2023-02-11T02:41:57.590Z,-5.77
2023-02-11T02:44:24.073Z,-6.07
2023-02-11T02:46:50.725Z,-6.15
2023-02-11T02:49:17.293Z,-5.93
2023-02-11T02:52:21.465Z,-5.88
2023-02-11T02:55:06.450Z,-5.82
2023-02-11T02:57:45.888Z,-5.78
2023-02-11T03:00:37.578Z,-5.67
2023-02-11T03:03:27.438Z,-5.56
2023-02-11T03:06:08.849Z,-5.40
2023-02-11T03:08:42.383Z,-5.83
2023-02-11T03:11:09.704Z,-6.04
2023-02-11T03:13:36.707Z,-6.14
2023-02-11T03:16:09.836Z,-5.99
2023-02-11T03:18:36.856Z,-5.80
2023-02-11T03:21:03.447Z,-5.56
2023-02-11T03:23:35.860Z,-5.53
2023-02-11T03:26:14.855Z,-5.37
2023-02-11T03:29:08.386Z,-5.17
2023-02-11T03:31:50.979Z,-5.21
2023-02-11T03:34:38.351Z,-5.23
2023-02-11T03:37:32.784Z,-4.89
2023-02-11T03:40:08.450Z,-4.89
2023-02-11T03:42:46.512Z,-5.08
2023-02-11T03:45:15.582Z,-5.07
2023-02-11T03:47:45.684Z,-4.94
2023-02-11T03:50:12.592Z,-5.08
2023-02-11T03:52:39.220Z,-5.15
2023-02-11T03:55:11.238Z,-5.15
2023-02-11T03:57:37.963Z,-4.81
2023-02-11T04:00:05.091Z,-4.91
2023-02-11T04:02:33.687Z,-4.73
2023-02-11T04:05:00.408Z,-4.52
2023-02-11T04:07:27.071Z,-4.76
2023-02-11T04:09:53.625Z,-4.73
2023-02-11T04:12:20.140Z,-4.62
2023-02-11T04:14:46.707Z,-4.60
2023-02-11T04:17:13.219Z,-4.55
2023-02-11T04:19:39.781Z,-4.53
2023-02-11T04:22:06.395Z,-4.55
2023-02-11T04:24:32.856Z,-4.42
2023-02-11T04:26:59.334Z,-4.30
2023-02-11T04:29:25.897Z,-4.36
2023-02-11T04:31:52.422Z,-4.30
2023-02-11T04:34:18.921Z,-4.22
2023-02-11T04:36:45.609Z,-4.14
2023-02-11T04:39:12.094Z,-4.09
2023-02-11T04:41:38.576Z,-3.97
2023-02-11T04:44:05.301Z,-3.92
2023-02-11T04:46:31.859Z,-3.91
2023-02-11T04:48:58.384Z,-3.80
2023-02-11T04:51:24.946Z,-3.89
2023-02-11T04:53:51.458Z,-3.95
2023-02-11T04:56:17.962Z,-3.98
2023-02-11T04:58:44.484Z,-4.01
2023-02-11T05:01:12.798Z,-3.94
2023-02-11T05:03:39.318Z,-3.82
2023-02-11T05:06:06.257Z,-3.77
2023-02-11T05:08:32.934Z,-3.73
2023-02-11T05:10:59.518Z,-3.73
2023-02-11T05:13:26.075Z,-3.70
2023-02-11T05:15:52.909Z,-3.66
2023-02-11T05:18:19.557Z,-3.70
2023-02-11T05:20:46.096Z,-3.72
2023-02-11T05:23:12.601Z,-3.73
2023-02-11T05:25:39.133Z,-3.74
2023-02-11T05:28:05.954Z,-3.66
2023-02-11T05:30:32.565Z,-3.64
2023-02-11T05:32:59.050Z,-3.55
2023-02-11T05:35:25.559Z,-3.49
2023-02-11T05:37:52.118Z,-3.44
2023-02-11T05:40:18.595Z,-3.45
2023-02-11T05:42:45.132Z,-3.37
2023-02-11T05:45:11.685Z,-3.32
2023-02-11T05:47:38.152Z,-3.27
2023-02-11T05:50:04.754Z,-3.26
2023-02-11T05:52:31.232Z,-3.21
2023-02-11T05:54:57.932Z,-3.20
2023-02-11T05:57:24.478Z,-3.14
2023-02-11T05:59:50.936Z,-3.18
2023-02-11T06:02:17.433Z,-3.16
2023-02-11T06:04:44.383Z,-3.07
2023-02-11T06:07:10.863Z,-2.99
2023-02-11T06:09:37.741Z,-2.93
2023-02-11T06:12:04.486Z,-2.91
2023-02-11T06:14:33.547Z,-2.91
2023-02-11T06:17:00.302Z,-2.92
2023-02-11T06:19:26.999Z,-2.86
2023-02-11T06:21:53.530Z,-2.88
2023-02-11T06:24:38.413Z,-2.86
2023-02-11T06:27:06.526Z,-2.81
2023-02-11T06:29:33.076Z,-2.93
2023-02-11T06:31:59.641Z,-2.79
2023-02-11T06:34:26.179Z,-2.73
2023-02-11T06:36:52.643Z,-2.72
2023-02-11T06:39:19.208Z,-2.63
2023-02-11T06:41:45.742Z,-2.55
2023-02-11T06:44:12.263Z,-2.53
2023-02-11T06:46:38.793Z,-2.62
2023-02-11T06:49:05.375Z,-2.62
2023-02-11T06:51:31.872Z,-2.62
2023-02-11T06:53:58.411Z,-2.56
2023-02-11T06:56:27.369Z,-2.52
2023-02-11T06:58:55.397Z,-2.49
2023-02-11T07:01:22.374Z,-2.49
2023-02-11T07:03:48.906Z,-2.42
2023-02-11T07:06:17.098Z,-2.34
2023-02-11T07:08:45.804Z,-2.31
2023-02-11T07:11:13.931Z,-2.37
2023-02-11T07:13:40.448Z,-2.40
2023-02-11T07:16:07.623Z,-2.39
2023-02-11T07:18:34.162Z,-2.34
2023-02-11T07:21:04.069Z,-2.35
2023-02-11T07:23:30.535Z,-2.27
2023-02-11T07:25:57.133Z,-2.22
2023-02-11T07:28:23.642Z,-2.19
2023-02-11T07:30:50.177Z,-2.14
2023-02-11T07:33:16.738Z,-2.04
2023-02-11T07:35:43.252Z,-1.98
2023-02-11T07:38:09.814Z,-2.00
2023-02-11T07:40:36.626Z,-1.87
2023-02-11T07:43:03.168Z,-1.75
2023-02-11T07:45:29.677Z,-1.68
2023-02-11T07:47:56.201Z,-1.67
2023-02-11T07:50:22.701Z,-1.63
2023-02-11T07:52:49.212Z,-1.58
2023-02-11T07:55:15.768Z,-1.52
2023-02-11T07:57:42.314Z,-1.49
2023-02-11T08:00:09.357Z,-1.43
2023-02-11T08:02:35.905Z,-1.46
2023-02-11T08:05:02.474Z,-1.39
2023-02-11T08:07:29.659Z,-1.28
2023-02-11T08:09:56.263Z,-1.24
2023-02-11T08:12:22.793Z,-1.25
2023-02-11T08:14:49.275Z,-1.17
2023-02-11T08:17:15.807Z,-1.11
2023-02-11T08:19:42.454Z,-0.91
2023-02-11T08:22:08.919Z,-0.86
2023-02-11T08:24:35.489Z,-0.75
2023-02-11T08:27:02.004Z,-0.62
2023-02-11T08:29:28.498Z,-0.40
2023-02-11T08:31:55.231Z,-0.24
2023-02-11T08:34:21.988Z,-0.03
2023-02-11T08:36:48.654Z,0.04
2023-02-11T08:39:20.768Z,0.05
2023-02-11T08:41:52.353Z,0.05
2023-02-11T08:44:19.560Z,0.10
2023-02-11T08:46:46.338Z,0.25
2023-02-11T08:49:12.862Z,0.42
2023-02-11T08:51:39.388Z,0.57
2023-02-11T08:54:09.455Z,0.62
2023-02-11T08:56:36.809Z,0.76
2023-02-11T08:59:03.384Z,0.79
2023-02-11T09:01:30.630Z,0.89
2023-02-11T09:03:57.978Z,0.90
2023-02-11T09:06:25.005Z,0.88
2023-02-11T09:08:53.058Z,0.96
2023-02-11T09:11:21.210Z,0.96
2023-02-11T09:13:47.925Z,0.94
2023-02-11T09:16:22.486Z,0.94
2023-02-11T09:18:49.254Z,0.78
2023-02-11T09:21:16.154Z,0.87
2023-02-11T09:23:44.679Z,0.91
2023-02-11T09:26:20.165Z,0.91
2023-02-11T09:28:47.069Z,0.93
2023-02-11T09:31:15.558Z,0.90
2023-02-11T09:33:48.146Z,0.91
2023-02-11T09:36:19.489Z,0.88
2023-02-11T09:38:46.266Z,0.88
2023-02-11T09:41:40.877Z,0.92
2023-02-11T09:44:09.578Z,0.87
2023-02-11T09:46:37.950Z,0.92
2023-02-11T09:49:04.971Z,0.94
2023-02-11T09:51:40.466Z,0.84
2023-02-11T09:54:34.672Z,0.91
2023-02-11T09:57:01.274Z,0.83
2023-02-11T09:59:27.755Z,1.00
2023-02-11T10:02:04.777Z,0.91
2023-02-11T10:04:45.540Z,1.00
2023-02-11T10:07:25.300Z,1.01
2023-02-11T10:10:15.416Z,1.06
2023-02-11T10:12:52.993Z,1.00
2023-02-11T10:15:44.567Z,1.07
2023-02-11T10:18:48.565Z,1.14
2023-02-11T10:21:15.014Z,1.30
2023-02-11T10:23:43.411Z,1.26
2023-02-11T10:26:15.059Z,1.22
2023-02-11T10:28:43.851Z,1.21
2023-02-11T10:31:16.198Z,1.26
2023-02-11T10:33:44.151Z,1.27
2023-02-11T10:36:14.217Z,1.26
2023-02-11T10:38:40.783Z,1.15
2023-02-11T10:41:10.533Z,1.29
2023-02-11T10:43:37.023Z,1.36
2023-02-11T10:46:03.656Z,1.37
2023-02-11T10:48:51.375Z,1.47
2023-02-11T10:51:27.673Z,1.48
2023-02-11T10:54:21.111Z,1.42
2023-02-11T10:56:55.181Z,1.61
2023-02-11T10:59:28.341Z,1.59
2023-02-11T11:02:06.332Z,1.63
2023-02-11T11:04:45.325Z,1.73
2023-02-11T11:07:13.167Z,1.67
2023-02-11T11:10:00.313Z,1.75
2023-02-11T11:12:44.908Z,1.83
2023-02-11T11:15:11.305Z,1.88
2023-02-11T11:17:38.031Z,1.97
2023-02-11T11:20:27.546Z,1.92
2023-02-11T11:23:08.462Z,1.90
2023-02-11T11:25:34.953Z,1.86
2023-02-11T11:28:01.495Z,1.92
2023-02-11T11:30:33.235Z,2.04
2023-02-11T11:33:00.024Z,2.06
2023-02-11T11:35:30.329Z,2.02
2023-02-11T11:38:02.025Z,1.99
2023-02-11T11:40:33.081Z,2.09
2023-02-11T11:43:05.576Z,2.31
2023-02-11T11:45:32.050Z,2.37
2023-02-11T11:48:10.408Z,2.47
2023-02-11T11:50:48.916Z,2.47
2023-02-11T11:53:40.303Z,2.53
2023-02-11T11:56:16.151Z,2.65
2023-02-11T11:58:42.656Z,2.65
2023-02-11T12:01:28.006Z,2.62
2023-02-11T12:04:18.537Z,2.71
2023-02-11T12:07:00.983Z,2.90
2023-02-11T12:09:37.349Z,3.13
2023-02-11T12:12:16.827Z,2.99
2023-02-11T12:14:55.350Z,3.04
2023-02-11T12:17:38.985Z,3.34
2023-02-11T12:20:33.348Z,3.26
2023-02-11T12:23:27.160Z,3.36
2023-02-11T12:26:26.341Z,3.26
2023-02-11T12:29:11.354Z,3.39
2023-02-11T12:31:47.300Z,3.42
2023-02-11T12:34:32.073Z,3.44
2023-02-11T12:37:08.158Z,3.45
2023-02-11T12:39:45.452Z,4.47
2023-02-11T12:42:49.507Z,4.45
2023-02-11T12:45:42.796Z,4.43
2023-02-11T12:48:13.044Z,4.03
2023-02-11T12:51:14.770Z,4.17
2023-02-11T12:53:47.377Z,4.28
2023-02-11T12:56:22.157Z,4.01
2023-02-11T12:58:48.969Z,3.65
2023-02-11T13:01:50.558Z,3.60
2023-02-11T13:04:37.090Z,3.52
2023-02-11T13:07:32.359Z,3.63
2023-02-11T13:10:02.671Z,3.67
2023-02-11T13:12:48.348Z,3.76
2023-02-11T13:15:15.039Z,3.71
2023-02-11T13:17:49.734Z,3.78
2023-02-11T13:20:37.023Z,3.79
2023-02-11T13:23:18.790Z,3.86
2023-02-11T13:26:10.989Z,3.86
2023-02-11T13:28:48.774Z,3.85
2023-02-11T13:31:16.834Z,3.89
2023-02-11T13:33:44.335Z,3.89
2023-02-11T13:36:13.055Z,3.93
2023-02-11T13:38:39.611Z,3.86
2023-02-11T13:41:17.135Z,3.82
2023-02-11T13:43:43.697Z,3.80
2023-02-11T13:46:13.779Z,3.71
2023-02-11T13:48:46.341Z,3.71
2023-02-11T13:51:14.985Z,3.70
2023-02-11T13:53:51.411Z,3.75
2023-02-11T13:56:32.659Z,3.85
2023-02-11T13:59:02.118Z,3.82
2023-02-11T14:02:06.973Z,3.81
2023-02-11T14:04:52.596Z,3.91
2023-02-11T14:07:48.457Z,3.99
2023-02-11T14:10:43.108Z,4.23
2023-02-11T14:13:33.053Z,4.49
2023-02-11T14:16:17.116Z,4.59
2023-02-11T14:18:51.874Z,4.65
2023-02-11T14:21:27.343Z,4.58
2023-02-11T14:23:55.939Z,4.45
2023-02-11T14:27:01.671Z,4.26
2023-02-11T14:29:46.180Z,4.18
2023-02-11T14:32:47.689Z,4.19
2023-02-11T14:35:36.512Z,4.02
2023-02-11T14:38:26.217Z,3.92
2023-02-11T14:41:05.680Z,3.94
2023-02-11T14:43:36.496Z,4.05
2023-02-11T14:46:03.167Z,4.05
2023-02-11T14:48:31.343Z,4.22
2023-02-11T14:51:00.667Z,4.21
2023-02-11T14:53:27.243Z,4.07
2023-02-11T14:55:54.341Z,3.90
2023-02-11T14:58:31.636Z,3.87
2023-02-11T15:00:59.213Z,3.81
2023-02-11T15:03:31.790Z,3.81
2023-02-11T15:06:19.815Z,3.73
2023-02-11T15:09:01.098Z,3.60
2023-02-11T15:11:32.241Z,3.57
2023-02-11T15:14:06.878Z,3.52
2023-02-11T15:16:33.376Z,3.57
2023-02-11T15:19:02.541Z,3.48
2023-02-11T15:21:30.221Z,3.54
2023-02-11T15:24:20.924Z,3.53
2023-02-11T15:27:21.048Z,3.53
2023-02-11T15:29:51.627Z,3.33
2023-02-11T15:32:18.956Z,3.29
2023-02-11T15:34:45.929Z,3.16
2023-02-11T15:37:14.503Z,3.08
2023-02-11T15:39:41.982Z,3.11
2023-02-11T15:42:27.643Z,3.10
2023-02-11T15:45:15.668Z,3.14
2023-02-11T15:47:47.204Z,3.22
2023-02-11T15:50:27.757Z,3.26
2023-02-11T15:52:54.988Z,3.19
2023-02-11T15:55:21.503Z,3.11
2023-02-11T15:57:52.498Z,3.06
2023-02-11T16:00:21.267Z,2.95
2023-02-11T16:02:48.664Z,2.96
2023-02-11T16:05:31.156Z,3.00
2023-02-11T16:07:58.016Z,3.00
2023-02-11T16:10:33.760Z,3.03
2023-02-11T16:13:17.358Z,2.85
2023-02-11T16:15:50.941Z,2.95
2023-02-11T16:18:40.006Z,2.88
2023-02-11T16:21:14.650Z,2.68
2023-02-11T16:23:44.112Z,2.66
2023-02-11T16:26:39.459Z,2.49
2023-02-11T16:29:14.409Z,2.39
2023-02-11T16:31:42.636Z,2.16
2023-02-11T16:34:16.336Z,2.01
2023-02-11T16:36:42.913Z,2.05
2023-02-11T16:39:09.782Z,2.17
2023-02-11T16:41:36.305Z,2.18
2023-02-11T16:44:02.947Z,2.23
2023-02-11T16:46:29.541Z,2.40
2023-02-11T16:48:56.223Z,2.48
2023-02-11T16:51:22.790Z,2.52
2023-02-11T16:53:49.294Z,2.55
2023-02-11T16:56:16.813Z,2.54
2023-02-11T16:58:44.447Z,2.41
2023-02-11T17:01:13.527Z,2.35
2023-02-11T17:03:40.583Z,2.35
2023-02-11T17:06:09.076Z,2.31
2023-02-11T17:08:35.793Z,2.35
2023-02-11T17:11:02.901Z,2.21
2023-02-11T17:13:29.454Z,2.01
2023-02-11T17:15:56.091Z,1.98
2023-02-11T17:18:22.664Z,1.98
2023-02-11T17:20:49.176Z,2.01
2023-02-11T17:23:15.720Z,1.86
2023-02-11T17:25:42.269Z,1.99
2023-02-11T17:28:09.000Z,2.02
2023-02-11T17:30:35.597Z,2.02
2023-02-11T17:33:02.065Z,2.06
2023-02-11T17:35:28.584Z,2.08
2023-02-11T17:37:55.125Z,1.97
2023-02-11T17:40:21.749Z,1.94
2023-02-11T17:42:48.464Z,1.86
2023-02-11T17:45:15.229Z,1.80
2023-02-11T17:47:41.760Z,1.70
2023-02-11T17:50:08.822Z,1.63
2023-02-11T17:52:36.566Z,1.73
2023-02-11T17:55:03.132Z,1.80
2023-02-11T17:57:29.772Z,1.83
2023-02-11T17:59:56.268Z,1.88
2023-02-11T18:02:22.795Z,1.94
2023-02-11T18:04:49.627Z,1.91
2023-02-11T18:07:16.213Z,1.86
2023-02-11T18:09:42.912Z,1.74
2023-02-11T18:12:10.656Z,1.69
2023-02-11T18:14:40.509Z,1.66
2023-02-11T18:17:07.233Z,1.65
2023-02-11T18:19:35.930Z,1.61
2023-02-11T18:22:04.218Z,1.64
2023-02-11T18:24:31.049Z,1.71
2023-02-11T18:26:57.652Z,1.75
2023-02-11T18:29:24.173Z,1.72
2023-02-11T18:31:50.852Z,1.67
2023-02-11T18:34:17.480Z,1.71
2023-02-11T18:36:44.386Z,1.74
2023-02-11T18:39:10.912Z,1.73
2023-02-11T18:41:40.084Z,1.80
2023-02-11T18:44:06.800Z,1.70
2023-02-11T18:46:33.525Z,1.71
2023-02-11T18:49:00.111Z,1.63
2023-02-11T18:51:26.654Z,1.52
2023-02-11T18:53:53.227Z,1.54
2023-02-11T18:56:21.781Z,1.51
2023-02-11T18:58:48.865Z,1.62
2023-02-11T19:01:20.929Z,1.64
2023-02-11T19:03:48.324Z,1.70
2023-02-11T19:06:19.904Z,1.70
2023-02-11T19:08:46.403Z,1.54
2023-02-11T19:11:13.273Z,1.42
2023-02-11T19:13:39.835Z,1.40
2023-02-11T19:16:11.360Z,1.36
2023-02-11T19:18:38.700Z,1.38
2023-02-11T19:21:09.290Z,1.39
2023-02-11T19:23:35.830Z,1.46
2023-02-11T19:26:04.523Z,1.37
2023-02-11T19:28:31.798Z,1.35
2023-02-11T19:30:58.365Z,1.45
2023-02-11T19:33:24.917Z,1.35
2023-02-11T19:35:51.666Z,1.36
2023-02-11T19:38:19.100Z,1.34
2023-02-11T19:40:45.599Z,1.20
2023-02-11T19:43:12.078Z,1.28
2023-02-11T19:45:38.548Z,1.35
2023-02-11T19:48:05.242Z,1.35
2023-02-11T19:50:31.731Z,1.35
2023-02-11T19:52:58.296Z,1.28
2023-02-11T19:55:24.841Z,1.35
2023-02-11T19:57:51.350Z,1.36
2023-02-11T20:00:18.448Z,1.33
2023-02-11T20:02:47.113Z,1.28
2023-02-11T20:05:14.084Z,1.23
2023-02-11T20:07:40.575Z,1.33
2023-02-11T20:10:08.102Z,1.33
2023-02-11T20:12:34.592Z,1.37
2023-02-11T20:15:01.086Z,1.42
2023-02-11T20:17:28.239Z,1.43
2023-02-11T20:19:54.792Z,1.40
2023-02-11T20:22:21.292Z,1.39
2023-02-11T20:24:48.305Z,1.33
2023-02-11T20:27:14.893Z,1.35
2023-02-11T20:29:41.564Z,1.42
2023-02-11T20:32:11.086Z,1.57
2023-02-11T20:34:37.689Z,1.73
2023-02-11T20:37:04.794Z,1.71
2023-02-11T20:39:31.443Z,1.66
2023-02-11T20:42:01.087Z,1.69
2023-02-11T20:44:27.664Z,1.69
2023-02-11T20:46:54.623Z,1.78
2023-02-11T20:49:22.877Z,1.69
2023-02-11T20:51:53.675Z,1.69
2023-02-11T20:54:20.556Z,1.78
2023-02-11T20:56:48.195Z,1.89
2023-02-11T20:59:14.957Z,1.79
2023-02-11T21:01:43.303Z,1.82
2023-02-11T21:04:30.339Z,1.84
2023-02-11T21:06:58.880Z,2.02
2023-02-11T21:09:27.210Z,2.10
2023-02-11T21:11:54.109Z,2.08
2023-02-11T21:14:22.160Z,2.02
2023-02-11T21:16:48.703Z,2.09
2023-02-11T21:19:15.413Z,2.20
2023-02-11T21:21:45.465Z,2.75
2023-02-11T21:24:11.977Z,3.09
2023-02-11T21:26:38.590Z,3.02
2023-02-11T21:29:05.667Z,3.02
2023-02-11T21:31:32.851Z,3.00
2023-02-11T21:33:59.566Z,2.86
2023-02-11T21:36:27.900Z,2.77
2023-02-11T21:38:54.457Z,2.73
2023-02-11T21:41:22.382Z,2.65
2023-02-11T21:43:49.432Z,2.65
2023-02-11T21:46:16.413Z,2.69
2023-02-11T21:48:42.973Z,2.65
2023-02-11T21:51:12.943Z,2.62
2023-02-11T21:53:39.471Z,3.06
2023-02-11T21:56:16.376Z,3.03
2023-02-11T21:58:43.286Z,2.90
2023-02-11T22:01:14.181Z,2.82
2023-02-11T22:03:40.787Z,2.84
2023-02-11T22:06:08.931Z,2.94
2023-02-11T22:08:35.497Z,2.88
2023-02-11T22:11:04.005Z,2.88
2023-02-11T22:13:30.609Z,2.75
2023-02-11T22:15:58.914Z,3.37
2023-02-11T22:18:25.506Z,3.36
2023-02-11T22:21:24.662Z,3.03
2023-02-11T22:23:51.673Z,2.87
2023-02-11T22:26:20.349Z,2.75
2023-02-11T22:28:46.920Z,2.75
2023-02-11T22:31:15.465Z,2.76
2023-02-11T22:33:42.166Z,2.68
2023-02-11T22:36:14.536Z,2.58
2023-02-11T22:38:41.123Z,2.46
2023-02-11T22:41:09.332Z,2.56
2023-02-11T22:43:35.955Z,2.48
2023-02-11T22:46:03.301Z,2.53
2023-02-11T22:48:29.905Z,2.38
2023-02-11T22:50:56.463Z,2.46
2023-02-11T22:53:25.478Z,2.44
2023-02-11T22:55:52.340Z,2.40
2023-02-11T22:58:18.993Z,2.43
2023-02-11T23:00:45.489Z,2.51
2023-02-11T23:03:11.976Z,2.61
2023-02-11T23:05:41.716Z,2.74
2023-02-11T23:08:09.028Z,2.67
2023-02-11T23:10:36.343Z,2.47
2023-02-11T23:13:03.488Z,2.55
2023-02-11T23:15:30.001Z,2.50
2023-02-11T23:17:56.519Z,2.63
2023-02-11T23:20:23.025Z,2.49
2023-02-11T23:22:49.586Z,2.47
2023-02-11T23:25:16.183Z,2.59
2023-02-11T23:27:42.648Z,2.53
2023-02-11T23:30:09.699Z,2.73
2023-02-11T23:32:38.818Z,2.77
2023-02-11T23:35:05.553Z,2.75
2023-02-11T23:37:32.038Z,2.67
2023-02-11T23:39:58.545Z,2.56
2023-02-11T23:42:25.278Z,2.77
2023-02-11T23:44:51.827Z,2.80
2023-02-11T23:47:18.298Z,3.08
2023-02-11T23:49:44.738Z,3.15
2023-02-11T23:52:11.227Z,3.04
2023-02-11T23:54:37.691Z,2.96
2023-02-11T23:57:04.172Z,2.85
2023-02-11T23:59:30.721Z,2.90
